Terminal Aerodrome Forecast
Issued by NWS Pittsburgh, PA

Current Version | Previous Version | Graphics & Text | Print | Product List | Glossary On
Versions: 1 2 3 4 5 6 7 8 9 10 11 12 13 14 15 16 17 18 19 20 21 22 23 24 25 26 27 28 29 30
000
FTUS41 KPBZ 232300
TAFPIT
TAF
KPIT 232324Z 2400/2506 VRB03KT P6SM SCT020 BKN120
     FM240300 VRB03KT P6SM -RASN OVC025
     FM240600 VRB03KT 2SM -SN OVC008
     FM241100 VRB03KT 4SM BR OVC015
     FM241800 28009KT P6SM BKN025=

USA.gov is the U.S. government's official web portal to all federal, state and local government web resources and services.